createdAt,value
2022-11-16T00:01:19.103Z,99897.63
2022-11-16T00:03:46.152Z,99895.69
2022-11-16T00:06:14.569Z,99899.19
2022-11-16T00:09:06.388Z,99897.25
2022-11-16T00:11:33.724Z,99898.91
2022-11-16T00:14:00.393Z,99895.38
2022-11-16T00:16:27.022Z,99891.91
2022-11-16T00:18:58.227Z,99892.75
2022-11-16T00:21:27.342Z,99899.63
2022-11-16T00:24:00.130Z,99896.91
2022-11-16T00:26:26.917Z,99894.41
2022-11-16T00:28:54.712Z,99898.81
2022-11-16T00:31:22.140Z,99886.56
2022-11-16T00:33:49.547Z,99890.00
2022-11-16T00:36:16.494Z,99893.56
2022-11-16T00:38:43.439Z,99893.56
2022-11-16T00:41:10.336Z,99894.31
2022-11-16T00:43:37.303Z,99890.72
2022-11-16T00:46:04.981Z,99884.66
2022-11-16T00:48:31.875Z,99879.28
2022-11-16T00:50:58.613Z,99887.13
2022-11-16T00:53:25.129Z,99887.03
2022-11-16T00:55:51.702Z,99880.00
2022-11-16T00:58:18.288Z,99880.00
2022-11-16T01:00:44.995Z,99877.41
2022-11-16T01:03:11.604Z,99873.81
2022-11-16T01:05:38.377Z,99872.16
2022-11-16T01:08:05.119Z,99873.09
2022-11-16T01:10:31.551Z,99885.25
2022-11-16T01:12:58.782Z,99880.00
2022-11-16T01:15:27.578Z,99874.63
2022-11-16T01:17:55.989Z,99866.78
2022-11-16T01:20:25.704Z,99869.41
2022-11-16T01:22:52.699Z,99864.16
2022-11-16T01:25:19.589Z,99868.59
2022-11-16T01:27:46.158Z,99868.59
2022-11-16T01:30:14.709Z,99865.84
2022-11-16T01:32:41.254Z,99863.25
2022-11-16T01:35:08.596Z,99864.06
2022-11-16T01:37:35.195Z,99861.44
2022-11-16T01:40:01.699Z,99852.63
2022-11-16T01:42:30.274Z,99863.09
2022-11-16T01:45:23.127Z,99862.28
2022-11-16T01:47:50.495Z,99856.09
2022-11-16T01:50:18.401Z,99863.09
2022-11-16T01:52:52.513Z,99855.25
2022-11-16T01:55:19.742Z,99856.91
2022-11-16T01:57:47.660Z,99857.88
2022-11-16T02:00:15.024Z,99859.53
2022-11-16T02:02:42.082Z,99853.34
2022-11-16T02:05:11.602Z,99851.44
2022-11-16T02:08:32.857Z,99847.16
2022-11-16T02:11:05.420Z,99843.56
2022-11-16T02:13:35.836Z,99841.94
2022-11-16T02:16:28.338Z,99829.66
2022-11-16T02:19:00.509Z,99830.50
2022-11-16T02:21:41.105Z,99830.38
2022-11-16T02:24:19.634Z,99823.34
2022-11-16T02:26:52.088Z,99819.06
2022-11-16T02:29:24.507Z,99823.47
2022-11-16T02:32:15.384Z,99825.25
2022-11-16T02:34:57.434Z,99836.56
2022-11-16T02:37:28.327Z,99819.06
2022-11-16T02:39:58.177Z,99821.69
2022-11-16T02:42:41.556Z,99819.06
2022-11-16T02:45:12.270Z,99826.91
2022-11-16T02:47:41.652Z,99825.97
2022-11-16T02:50:16.552Z,99821.44
2022-11-16T02:52:42.968Z,99817.16
2022-11-16T02:55:09.643Z,99820.59
2022-11-16T02:57:42.420Z,99825.97
2022-11-16T03:00:15.677Z,99819.91
2022-11-16T03:02:59.468Z,99823.47
2022-11-16T03:05:39.506Z,99822.63
2022-11-16T03:08:20.935Z,99821.00
2022-11-16T03:11:11.739Z,99823.59
2022-11-16T03:13:40.336Z,99824.56
2022-11-16T03:16:26.235Z,99828.13
2022-11-16T03:18:58.329Z,99834.31
2022-11-16T03:21:39.479Z,99830.88
2022-11-16T03:24:07.520Z,99837.91
2022-11-16T03:27:08.868Z,99833.59
2022-11-16T03:30:02.744Z,99833.59
2022-11-16T03:33:09.836Z,99834.81
2022-11-16T03:35:46.382Z,99834.13
2022-11-16T03:38:15.557Z,99833.38
2022-11-16T03:40:45.686Z,99833.50
2022-11-16T03:43:12.887Z,99838.88
2022-11-16T03:45:39.574Z,99841.72
2022-11-16T03:48:07.287Z,99843.50
2022-11-16T03:50:34.039Z,99842.78
2022-11-16T03:53:00.496Z,99841.00
2022-11-16T03:55:26.928Z,99839.34
2022-11-16T03:57:53.450Z,99846.38
2022-11-16T04:00:20.032Z,99845.66
2022-11-16T04:02:46.532Z,99845.78
2022-11-16T04:05:31.708Z,99859.09
2022-11-16T04:08:16.458Z,99856.72
2022-11-16T04:11:02.227Z,99850.91
2022-11-16T04:13:50.829Z,99852.78
2022-11-16T04:16:35.817Z,99861.84
2022-11-16T04:19:20.655Z,99857.78
2022-11-16T04:22:16.122Z,99857.19
2022-11-16T04:24:47.559Z,99859.06
2022-11-16T04:27:34.283Z,99857.53
2022-11-16T04:30:02.771Z,99854.34
2022-11-16T04:32:48.446Z,99861.31
2022-11-16T04:35:33.794Z,99863.34
2022-11-16T04:38:00.337Z,99860.25
2022-11-16T04:40:30.633Z,99875.34
2022-11-16T04:42:59.268Z,99866.91
2022-11-16T04:45:46.277Z,99866.19
2022-11-16T04:48:14.553Z,99867.16
2022-11-16T04:50:41.257Z,99870.00
2022-11-16T04:53:08.456Z,99870.94
2022-11-16T04:55:35.460Z,99873.81
2022-11-16T04:58:02.419Z,99873.81
2022-11-16T05:00:29.541Z,99874.72
2022-11-16T05:03:01.047Z,99871.28
2022-11-16T05:05:28.302Z,99875.56
2022-11-16T05:07:54.812Z,99879.25
2022-11-16T05:10:21.274Z,99878.66
2022-11-16T05:12:47.758Z,99877.09
2022-11-16T05:15:14.735Z,99887.78
2022-11-16T05:17:41.357Z,99889.66
2022-11-16T05:20:29.714Z,99893.22
2022-11-16T05:22:57.706Z,99897.63
2022-11-16T05:25:25.556Z,99898.59
2022-11-16T05:27:54.563Z,99896.06
2022-11-16T05:30:22.088Z,99893.69
2022-11-16T05:32:48.594Z,99900.69
2022-11-16T05:35:15.144Z,99892.13
2022-11-16T05:37:42.424Z,99907.09
2022-11-16T05:40:09.500Z,99909.72
2022-11-16T05:42:36.080Z,99900.31
2022-11-16T05:45:05.547Z,99906.59
2022-11-16T05:47:33.352Z,99915.53
2022-11-16T05:49:59.763Z,99913.97
2022-11-16T05:52:26.146Z,99915.75
2022-11-16T05:54:52.589Z,99914.06
2022-11-16T05:57:19.099Z,99920.97
2022-11-16T05:59:45.808Z,99921.81
2022-11-16T06:02:14.576Z,99917.50
2022-11-16T06:04:40.991Z,99923.81
2022-11-16T06:07:07.522Z,99923.06
2022-11-16T06:09:34.007Z,99918.81
2022-11-16T06:12:00.479Z,99919.97
2022-11-16T06:14:27.028Z,99918.28
2022-11-16T06:16:53.527Z,99918.50
2022-11-16T06:19:20.007Z,99913.28
2022-11-16T06:21:46.495Z,99916.84
2022-11-16T06:24:13.032Z,99919.59
2022-11-16T06:26:39.812Z,99912.69
2022-11-16T06:29:06.285Z,99911.84
2022-11-16T06:31:32.960Z,99914.69
2022-11-16T06:33:59.523Z,99922.53
2022-11-16T06:36:26.058Z,99925.25
2022-11-16T06:38:52.606Z,99933.19
2022-11-16T06:41:19.334Z,99927.25
2022-11-16T06:43:46.095Z,99927.47
2022-11-16T06:46:12.632Z,99930.31
2022-11-16T06:48:39.261Z,99934.91
2022-11-16T06:51:06.091Z,99942.16
2022-11-16T06:53:32.775Z,99944.13
2022-11-16T06:56:04.808Z,99942.66
2022-11-16T06:58:42.617Z,99949.19
2022-11-16T07:01:11.450Z,99952.97
2022-11-16T07:03:38.385Z,99953.16
2022-11-16T07:06:07.085Z,99956.91
2022-11-16T07:08:33.898Z,99951.19
2022-11-16T07:11:06.123Z,99957.59
2022-11-16T07:13:34.381Z,99952.56
2022-11-16T07:16:02.643Z,99962.41
2022-11-16T07:18:34.196Z,99965.09
2022-11-16T07:21:07.144Z,99963.66
2022-11-16T07:23:33.752Z,99965.50
2022-11-16T07:26:02.927Z,99971.81
2022-11-16T07:28:29.838Z,99972.84
2022-11-16T07:31:08.117Z,99975.53
2022-11-16T07:33:37.211Z,99982.53
2022-11-16T07:36:07.198Z,99988.69
2022-11-16T07:38:34.569Z,99985.34
2022-11-16T07:41:03.614Z,99991.44
2022-11-16T07:43:35.216Z,99995.78
2022-11-16T07:46:44.665Z,99998.38
2022-11-16T07:48:53.073Z,100001.00
2022-11-16T07:51:20.185Z,100002.78
2022-11-16T07:53:46.632Z,100006.22
2022-11-16T07:56:13.519Z,100009.69
2022-11-16T07:58:40.516Z,100012.19
2022-11-16T08:01:11.207Z,100013.13
2022-11-16T08:03:39.411Z,100015.72
2022-11-16T08:06:11.246Z,100024.59
2022-11-16T08:08:37.873Z,100027.94
2022-11-16T08:11:06.914Z,100030.44
2022-11-16T08:13:35.132Z,100030.44
2022-11-16T08:16:03.068Z,100026.66
2022-11-16T08:18:30.816Z,100037.00
2022-11-16T08:21:01.860Z,100030.03
2022-11-16T08:23:29.551Z,100040.97
2022-11-16T08:26:00.178Z,100039.09
2022-11-16T08:28:27.836Z,100043.47
2022-11-16T08:30:55.619Z,100046.91
2022-11-16T08:33:23.575Z,100045.97
2022-11-16T08:35:51.464Z,100043.28
2022-11-16T08:38:18.583Z,100050.03
2022-11-16T08:40:45.567Z,100035.13
2022-11-16T08:43:12.378Z,100033.97
2022-11-16T08:45:39.077Z,100043.28
2022-11-16T08:48:05.886Z,100050.88
2022-11-16T08:50:44.260Z,100052.00
2022-11-16T08:53:15.854Z,100053.47
2022-11-16T08:55:43.107Z,100044.38
2022-11-16T08:58:11.213Z,100055.56
2022-11-16T09:00:38.212Z,100055.22
2022-11-16T09:03:04.640Z,100049.78
2022-11-16T09:05:31.169Z,100051.38
2022-11-16T09:07:57.624Z,100048.41
2022-11-16T09:10:25.922Z,100053.00
2022-11-16T09:12:52.659Z,100057.06
2022-11-16T09:15:19.422Z,100054.72
2022-11-16T09:17:46.062Z,100054.50
2022-11-16T09:20:12.449Z,100046.38
2022-11-16T09:22:38.888Z,100060.13
2022-11-16T09:25:05.880Z,100057.63
2022-11-16T09:27:32.479Z,100061.56
2022-11-16T09:29:58.973Z,100063.03
2022-11-16T09:32:25.394Z,100070.09
2022-11-16T09:34:51.876Z,100063.47
2022-11-16T09:37:20.611Z,100068.75
2022-11-16T09:39:47.243Z,100068.91
2022-11-16T09:42:30.568Z,100071.50
2022-11-16T09:45:15.299Z,100073.88
2022-11-16T09:48:05.592Z,100072.94
2022-11-16T09:50:44.691Z,100074.31
2022-11-16T09:53:28.446Z,100078.81
2022-11-16T09:56:07.500Z,100079.44
2022-11-16T09:58:43.620Z,100077.34
2022-11-16T10:01:27.583Z,100070.63
2022-11-16T10:04:03.178Z,100072.97
2022-11-16T10:06:37.740Z,100077.97
2022-11-16T10:09:04.982Z,100077.28
2022-11-16T10:11:55.711Z,100075.84
2022-11-16T10:14:39.092Z,100078.50
2022-11-16T10:17:23.452Z,100067.28
2022-11-16T10:20:45.109Z,100070.28
2022-11-16T10:23:46.082Z,100066.84
2022-11-16T10:26:18.563Z,100062.56
2022-11-16T10:29:10.478Z,100064.00
2022-11-16T10:32:02.197Z,100063.41
2022-11-16T10:34:42.661Z,100066.50
2022-11-16T10:37:18.439Z,100067.88
2022-11-16T10:39:53.829Z,100063.97
2022-11-16T10:42:32.805Z,100066.44
2022-11-16T10:45:10.811Z,100059.44
2022-11-16T10:47:52.335Z,100065.16
2022-11-16T10:50:38.405Z,100062.63
2022-11-16T10:53:05.163Z,100073.97
2022-11-16T10:55:49.812Z,100070.97
2022-11-16T10:58:16.618Z,100070.53
2022-11-16T11:00:51.700Z,100066.75
2022-11-16T11:03:32.744Z,100068.44
2022-11-16T11:05:59.984Z,100062.47
2022-11-16T11:08:30.738Z,100063.66
2022-11-16T11:11:24.220Z,100072.25
2022-11-16T11:14:10.235Z,100065.97
2022-11-16T11:16:37.958Z,100056.56
2022-11-16T11:19:28.787Z,100066.19
2022-11-16T11:21:58.245Z,100064.50
2022-11-16T11:27:13.668Z,100056.06
2022-11-16T11:29:43.006Z,100057.84
2022-11-16T11:32:23.773Z,100058.31
2022-11-16T11:34:53.769Z,100044.06
2022-11-16T11:37:25.197Z,100040.84
2022-11-16T11:40:19.592Z,100036.56
2022-11-16T11:43:00.926Z,100035.59
2022-11-16T11:45:34.430Z,100034.56
2022-11-16T11:48:05.836Z,100030.50
2022-11-16T11:50:51.007Z,100023.09
2022-11-16T11:53:39.545Z,100022.50
2022-11-16T11:56:06.696Z,100026.09
2022-11-16T11:58:39.911Z,100016.44
2022-11-16T12:01:31.046Z,100027.50
2022-11-16T12:04:36.949Z,100022.03
2022-11-16T12:07:09.310Z,100020.59
2022-11-16T12:09:45.334Z,100029.31
2022-11-16T12:12:27.709Z,100029.44
2022-11-16T12:15:25.521Z,100022.28
2022-11-16T12:18:18.511Z,100023.69
2022-11-16T12:21:03.180Z,100024.28
2022-11-16T12:23:39.633Z,100025.63
2022-11-16T12:26:35.197Z,100024.66
2022-11-16T12:29:08.119Z,100028.09
2022-11-16T12:31:40.746Z,100028.47
2022-11-16T12:34:46.048Z,100028.34
2022-11-16T12:38:02.868Z,100027.75
2022-11-16T12:40:50.265Z,100015.72
2022-11-16T12:43:39.738Z,100020.59
2022-11-16T12:46:10.621Z,100008.63
2022-11-16T12:49:00.065Z,100003.38
2022-11-16T12:51:41.964Z,99999.09
2022-11-16T12:54:31.027Z,99983.66
2022-11-16T12:57:00.460Z,99994.38
2022-11-16T12:59:33.005Z,99985.09
2022-11-16T13:02:25.966Z,99989.63
2022-11-16T13:05:12.361Z,99974.16
2022-11-16T13:07:44.815Z,99977.88
2022-11-16T13:10:21.460Z,99986.06
2022-11-16T13:13:09.082Z,99987.84
2022-11-16T13:15:42.634Z,99980.00
2022-11-16T13:18:15.880Z,99979.66
2022-11-16T13:20:50.109Z,99978.09
2022-11-16T13:23:32.228Z,99972.38
2022-11-16T13:26:30.477Z,99965.50
2022-11-16T13:29:22.483Z,99970.72
2022-11-16T13:32:13.862Z,99972.03
2022-11-16T13:34:42.550Z,99979.19
2022-11-16T13:37:33.970Z,99971.69
2022-11-16T13:40:00.919Z,99982.31
2022-11-16T13:42:30.257Z,99979.06
2022-11-16T13:45:17.752Z,99979.91
2022-11-16T13:47:56.389Z,99979.56
2022-11-16T13:50:33.104Z,99980.75
2022-11-16T13:56:04.191Z,99969.91
2022-11-16T13:58:32.402Z,99969.69
2022-11-16T14:01:04.601Z,99964.44
2022-11-16T14:03:38.925Z,99955.66
2022-11-16T14:06:26.528Z,99953.97
2022-11-16T14:08:54.980Z,99953.75
2022-11-16T14:11:27.495Z,99954.34
2022-11-16T14:13:54.029Z,99954.59
2022-11-16T14:16:21.417Z,99944.94
2022-11-16T14:18:56.306Z,99946.38
2022-11-16T14:21:26.965Z,99939.00
2022-11-16T14:24:12.279Z,99938.41
2022-11-16T14:27:16.975Z,99941.97
2022-11-16T14:30:27.154Z,99930.56
2022-11-16T14:32:59.988Z,99931.88
2022-11-16T14:35:29.295Z,99929.59
2022-11-16T14:38:06.189Z,99933.41
2022-11-16T14:40:56.196Z,99938.03
2022-11-16T14:43:34.497Z,99929.97
2022-11-16T14:46:06.178Z,99928.41
2022-11-16T14:48:33.338Z,99916.66
2022-11-16T14:51:06.584Z,99922.59
2022-11-16T14:53:36.884Z,99912.63
2022-11-16T14:56:14.810Z,99911.66
2022-11-16T14:58:51.911Z,99913.97
2022-11-16T15:01:20.723Z,99906.72
2022-11-16T15:03:56.198Z,99902.78
2022-11-16T15:06:25.138Z,99905.16
2022-11-16T15:08:55.914Z,99900.53
2022-11-16T15:11:49.493Z,99900.16
2022-11-16T15:14:29.434Z,99894.56
2022-11-16T15:16:57.809Z,99895.84
2022-11-16T15:19:25.155Z,99893.69
2022-11-16T15:21:52.275Z,99888.91
2022-11-16T15:24:30.429Z,99891.06
2022-11-16T15:27:09.510Z,99879.41
2022-11-16T15:29:36.450Z,99873.78
2022-11-16T15:32:03.100Z,99872.47
2022-11-16T15:34:31.132Z,99872.81
2022-11-16T15:36:57.498Z,99876.81
2022-11-16T15:39:30.724Z,99871.22
2022-11-16T15:42:03.289Z,99873.31
2022-11-16T15:44:30.626Z,99867.59
2022-11-16T15:46:57.383Z,99866.50
2022-11-16T15:49:33.458Z,99860.88
2022-11-16T15:52:00.383Z,99850.88
2022-11-16T15:54:29.538Z,99842.56
2022-11-16T15:57:05.110Z,99834.34
2022-11-16T15:59:34.599Z,99830.25
2022-11-16T16:02:01.275Z,99836.56
2022-11-16T16:04:28.993Z,99835.69
2022-11-16T16:06:57.861Z,99833.22
2022-11-16T16:09:31.140Z,99815.91
2022-11-16T16:12:16.860Z,99797.84
2022-11-16T16:14:44.731Z,99826.03
2022-11-16T16:17:21.370Z,99833.25
2022-11-16T16:19:56.099Z,99840.25
2022-11-16T16:22:30.293Z,99834.41
2022-11-16T16:24:57.119Z,99832.84
2022-11-16T16:27:26.383Z,99838.06
2022-11-16T16:29:55.153Z,99830.97
2022-11-16T16:32:33.016Z,99815.94
2022-11-16T16:35:05.902Z,99818.44
2022-11-16T16:37:36.368Z,99804.47
2022-11-16T16:40:03.469Z,99805.91
2022-11-16T16:42:30.003Z,99810.50
2022-11-16T16:44:59.180Z,99816.16
2022-11-16T16:47:26.022Z,99815.31
2022-11-16T16:49:52.450Z,99802.28
2022-11-16T16:52:19.461Z,99803.47
2022-11-16T16:54:45.993Z,99803.88
2022-11-16T16:57:17.305Z,99806.69
2022-11-16T16:59:45.291Z,99799.50
2022-11-16T17:02:16.698Z,99805.66
2022-11-16T17:04:48.292Z,99787.91
2022-11-16T17:07:16.308Z,99788.97
2022-11-16T17:09:43.022Z,99778.16
2022-11-16T17:12:10.988Z,99787.84
2022-11-16T17:14:37.695Z,99790.78
2022-11-16T17:17:04.159Z,99778.56
2022-11-16T17:19:30.784Z,99783.88
2022-11-16T17:21:57.249Z,99779.50
2022-11-16T17:24:23.739Z,99776.28
2022-11-16T17:26:50.539Z,99779.22
2022-11-16T17:29:17.323Z,99779.31
2022-11-16T17:31:46.948Z,99781.94
2022-11-16T17:34:14.703Z,99777.97
2022-11-16T17:36:42.107Z,99786.94
2022-11-16T17:39:08.920Z,99778.31
2022-11-16T17:41:35.565Z,99788.81
2022-11-16T17:44:02.039Z,99777.91
2022-11-16T17:46:29.101Z,99779.75
2022-11-16T17:48:56.163Z,99767.78
2022-11-16T17:51:25.078Z,99763.50
2022-11-16T17:53:52.656Z,99755.16
2022-11-16T17:56:28.346Z,99750.28
2022-11-16T17:58:56.035Z,99764.13
2022-11-16T18:01:22.984Z,99757.56
2022-11-16T18:03:50.246Z,99761.03
2022-11-16T18:06:23.003Z,99751.31
2022-11-16T18:08:49.583Z,99744.13
2022-11-16T18:11:18.726Z,99748.81
2022-11-16T18:13:45.563Z,99756.81
2022-11-16T18:16:14.998Z,99749.53
2022-11-16T18:18:45.990Z,99750.88
2022-11-16T18:21:20.025Z,99752.81
2022-11-16T18:23:47.400Z,99739.47
2022-11-16T18:26:16.076Z,99745.41
2022-11-16T18:28:45.876Z,99743.53
2022-11-16T18:31:18.496Z,99741.53
2022-11-16T18:33:45.367Z,99743.78
2022-11-16T18:36:13.659Z,99743.72
2022-11-16T18:38:40.216Z,99747.03
2022-11-16T18:41:13.601Z,99745.06
2022-11-16T18:43:51.686Z,99739.72
2022-11-16T18:46:24.005Z,99735.53
2022-11-16T18:48:50.471Z,99734.84
2022-11-16T18:51:18.618Z,99724.63
2022-11-16T18:53:45.529Z,99719.41
2022-11-16T18:56:14.542Z,99721.06
2022-11-16T18:58:51.268Z,99717.50
2022-11-16T19:01:19.953Z,99719.41
2022-11-16T19:03:46.496Z,99708.97
2022-11-16T19:06:14.953Z,99707.09
2022-11-16T19:08:42.125Z,99698.81
2022-11-16T19:11:11.552Z,99706.22
2022-11-16T19:13:39.630Z,99683.50
2022-11-16T19:16:07.490Z,99685.97
2022-11-16T19:18:35.433Z,99688.72
2022-11-16T19:21:13.455Z,99674.00
2022-11-16T19:23:45.090Z,99659.06
2022-11-16T19:26:13.651Z,99654.47
2022-11-16T19:28:42.289Z,99644.88
2022-11-16T19:31:24.193Z,99641.31
2022-11-16T19:33:55.486Z,99632.31
2022-11-16T19:36:22.987Z,99641.69
2022-11-16T19:38:50.128Z,99625.19
2022-11-16T19:41:17.982Z,99623.56
2022-11-16T19:43:44.881Z,99622.81
2022-11-16T19:46:16.563Z,99621.66
2022-11-16T19:48:44.831Z,99618.09
2022-11-16T19:51:13.754Z,99613.63
2022-11-16T19:53:40.770Z,99604.13
2022-11-16T19:56:10.594Z,99598.91
2022-11-16T19:58:38.559Z,99587.53
2022-11-16T20:01:19.531Z,99586.34
2022-11-16T20:03:48.269Z,99580.41
2022-11-16T20:06:38.878Z,99570.94
2022-11-16T20:09:09.195Z,99570.19
2022-11-16T20:11:37.952Z,99567.59
2022-11-16T20:14:07.153Z,99555.28
2022-11-16T20:16:39.014Z,99553.63
2022-11-16T20:19:07.077Z,99541.50
2022-11-16T20:21:42.120Z,99547.78
2022-11-16T20:24:12.299Z,99540.91
2022-11-16T20:26:44.113Z,99536.28
2022-11-16T20:29:13.664Z,99541.28
2022-11-16T20:31:42.985Z,99534.28
2022-11-16T20:34:14.003Z,99539.41
2022-11-16T20:36:46.542Z,99540.00
2022-11-16T20:39:15.145Z,99528.50
2022-11-16T20:41:42.877Z,99519.72
2022-11-16T20:44:16.662Z,99516.16
2022-11-16T20:46:44.966Z,99515.31
2022-11-16T20:49:14.821Z,99520.31
2022-11-16T20:51:46.151Z,99498.38
2022-11-16T20:54:12.594Z,99489.59
2022-11-16T20:56:42.144Z,99496.69
2022-11-16T20:59:08.792Z,99487.22
2022-11-16T21:01:35.318Z,99492.44
2022-11-16T21:04:03.912Z,99486.41
2022-11-16T21:06:31.571Z,99489.09
2022-11-16T21:08:58.249Z,99481.06
2022-11-16T21:11:30.472Z,99472.16
2022-11-16T21:14:15.625Z,99463.66
2022-11-16T21:16:42.677Z,99451.44
2022-11-16T21:19:10.289Z,99444.41
2022-11-16T21:21:38.467Z,99437.41
2022-11-16T21:24:05.210Z,99444.28
2022-11-16T21:26:33.170Z,99434.81
2022-11-16T21:29:01.129Z,99436.69
2022-11-16T21:31:30.476Z,99421.75
2022-11-16T21:33:57.539Z,99414.91
2022-11-16T21:36:29.707Z,99404.47
2022-11-16T21:38:57.935Z,99408.59
2022-11-16T21:41:25.895Z,99401.47
2022-11-16T21:43:52.557Z,99393.53
2022-11-16T21:46:21.357Z,99390.94
2022-11-16T21:48:48.304Z,99376.22
2022-11-16T21:51:17.711Z,99374.56
2022-11-16T21:53:48.126Z,99368.53
2022-11-16T21:59:19.666Z,99359.97
2022-11-16T22:02:01.518Z,99353.94
2022-11-16T22:04:47.765Z,99344.31
2022-11-16T22:07:36.961Z,99346.09
2022-11-16T22:10:10.345Z,99339.94
2022-11-16T22:12:43.622Z,99332.09
2022-11-16T22:15:10.743Z,99332.09
2022-11-16T22:17:43.592Z,99321.56
2022-11-16T22:20:14.218Z,99313.72
2022-11-16T22:22:43.469Z,99304.84
2022-11-16T22:25:14.212Z,99304.84
2022-11-16T22:27:58.722Z,99289.19
2022-11-16T22:30:28.819Z,99288.22
2022-11-16T22:32:56.264Z,99275.88
2022-11-16T22:35:22.810Z,99264.50
2022-11-16T22:37:55.194Z,99259.28
2022-11-16T22:40:22.537Z,99248.84
2022-11-16T22:42:50.001Z,99248.84
2022-11-16T22:45:18.701Z,99237.44
2022-11-16T22:47:49.618Z,99232.06
2022-11-16T22:50:25.284Z,99226.88
2022-11-16T22:52:51.989Z,99221.63
2022-11-16T22:55:18.648Z,99209.31
2022-11-16T22:57:45.773Z,99199.00
2022-11-16T23:00:13.670Z,99192.25
2022-11-16T23:02:40.277Z,99177.44
2022-11-16T23:05:07.132Z,99179.06
2022-11-16T23:07:33.774Z,99182.66
2022-11-16T23:10:00.410Z,99154.09
2022-11-16T23:12:45.533Z,99151.34
2022-11-16T23:15:31.831Z,99149.44
2022-11-16T23:17:58.379Z,99151.19
2022-11-16T23:20:43.655Z,99143.50
2022-11-16T23:23:36.929Z,99139.09
2022-11-16T23:26:28.023Z,99132.25
2022-11-16T23:28:54.844Z,99132.34
2022-11-16T23:31:21.323Z,99125.50
2022-11-16T23:33:47.871Z,99116.69
2022-11-16T23:36:15.328Z,99112.44
2022-11-16T23:38:42.170Z,99106.56
2022-11-16T23:41:27.320Z,99090.91
2022-11-16T23:43:59.455Z,99080.47
2022-11-16T23:46:28.510Z,99066.72
2022-11-16T23:48:55.251Z,99057.91
2022-11-16T23:51:23.499Z,99039.66
2022-11-16T23:53:51.808Z,99026.75
2022-11-16T23:56:19.591Z,99012.03
2022-11-16T23:58:46.922Z,99002.56
